createdAt,value
2023-02-06T00:07:35.445Z,25.39
2023-02-06T00:08:35.303Z,24.74
2023-02-06T00:09:36.121Z,24.64
2023-02-06T00:18:58.706Z,24.67
2023-02-06T00:38:37.419Z,23.84
2023-02-06T00:39:36.740Z,23.54
2023-02-06T00:53:26.870Z,23.23
2023-02-06T00:54:28.289Z,22.63
2023-02-06T00:55:27.210Z,22.48
2023-02-06T00:57:45.897Z,22.67
2023-02-06T01:01:36.822Z,23.16
2023-02-06T01:02:37.120Z,22.48
2023-02-06T01:03:36.418Z,22.74
2023-02-06T01:04:37.496Z,22.71
2023-02-06T01:05:36.752Z,22.39
2023-02-06T01:06:36.490Z,22.30
2023-02-06T01:07:36.642Z,22.30
2023-02-06T01:08:36.606Z,22.63
2023-02-06T01:09:36.619Z,22.29
2023-02-06T01:10:36.682Z,22.23
2023-02-06T01:11:36.868Z,22.46
2023-02-06T01:12:37.811Z,22.61
2023-02-06T01:13:36.778Z,22.26
2023-02-06T01:14:36.765Z,22.72
2023-02-06T01:15:36.905Z,22.50
2023-02-06T01:16:36.759Z,22.37
2023-02-06T01:17:36.841Z,22.21
2023-02-06T01:18:36.856Z,22.38
2023-02-06T01:20:36.857Z,22.18
2023-02-06T01:21:36.926Z,22.41
2023-02-06T01:22:37.042Z,22.23
2023-02-06T01:23:36.873Z,22.25
2023-02-06T01:24:36.965Z,22.17
2023-02-06T01:25:37.250Z,22.25
2023-02-06T01:26:36.980Z,22.23
2023-02-06T01:27:36.914Z,22.14
2023-02-06T01:28:36.968Z,22.17
2023-02-06T01:29:37.016Z,22.14
2023-02-06T01:30:36.956Z,22.17
2023-02-06T01:31:37.043Z,22.11
2023-02-06T01:32:36.932Z,22.10
2023-02-06T01:33:36.924Z,22.42
2023-02-06T01:34:36.950Z,22.30
2023-02-06T01:36:58.542Z,22.71
2023-02-06T01:37:58.536Z,22.30
2023-02-06T01:38:58.341Z,22.25
2023-02-06T01:39:59.526Z,22.24
2023-02-06T01:40:58.079Z,22.17
2023-02-06T01:41:58.091Z,22.16
2023-02-06T02:45:47.276Z,22.17
2023-02-06T02:48:47.012Z,22.24
2023-02-06T02:49:47.100Z,22.14
2023-02-06T02:50:47.021Z,22.13
2023-02-06T02:51:46.908Z,22.08
2023-02-06T02:52:46.921Z,22.08
2023-02-06T02:53:46.999Z,22.10
2023-02-06T02:55:47.385Z,22.08
2023-02-06T02:56:47.745Z,22.09
2023-02-06T02:57:47.029Z,22.23
2023-02-06T02:58:47.189Z,22.08
2023-02-06T02:59:47.073Z,22.10
2023-02-06T03:00:47.050Z,22.04
2023-02-06T03:02:47.059Z,22.07
2023-02-06T03:03:46.985Z,22.08
2023-02-06T03:04:47.170Z,22.19
2023-02-06T03:05:46.955Z,22.11
2023-02-06T03:06:46.964Z,22.06
2023-02-06T03:07:47.040Z,22.11
2023-02-06T03:08:46.911Z,22.15
2023-02-06T03:09:46.964Z,22.09
2023-02-06T03:10:46.916Z,22.11
2023-02-06T03:12:47.015Z,22.08
2023-02-06T03:13:46.890Z,22.03
2023-02-06T03:14:46.886Z,22.06
2023-02-06T03:16:46.873Z,22.08
2023-02-06T03:17:46.842Z,22.04
2023-02-06T03:18:47.038Z,22.10
2023-02-06T03:19:46.901Z,22.29
2023-02-06T03:20:46.904Z,22.12
2023-02-06T03:21:46.889Z,22.08
2023-02-06T03:22:46.894Z,22.28
2023-02-06T03:23:46.867Z,22.10
2023-02-06T03:25:46.949Z,22.10
2023-02-06T03:27:46.965Z,22.05
2023-02-06T03:28:46.731Z,22.24
2023-02-06T03:29:46.832Z,22.10
2023-02-06T03:30:46.853Z,22.04
2023-02-06T03:31:46.824Z,22.03
2023-02-06T03:32:46.941Z,22.31
2023-02-06T03:33:46.955Z,22.14
2023-02-06T03:34:47.371Z,22.09
2023-02-06T03:35:47.053Z,22.41
2023-02-06T03:36:47.017Z,22.16
2023-02-06T03:37:46.996Z,22.25
2023-02-06T03:38:47.176Z,22.21
2023-02-06T03:39:47.114Z,22.11
2023-02-06T03:40:47.256Z,22.09
2023-02-06T04:34:08.828Z,22.21
2023-02-06T04:35:09.023Z,22.17
2023-02-06T05:22:36.574Z,24.26
2023-02-06T05:23:37.017Z,23.92
2023-02-06T05:24:36.409Z,23.83
2023-02-06T05:25:36.607Z,23.84
2023-02-06T05:26:37.138Z,23.80
2023-02-06T05:27:36.267Z,23.79
2023-02-06T05:28:36.396Z,23.76
2023-02-06T06:56:55.655Z,29.02
2023-02-06T07:10:34.371Z,28.91
2023-02-06T07:11:34.277Z,28.70
2023-02-06T07:12:33.154Z,28.30
2023-02-06T07:14:33.137Z,27.87
2023-02-06T07:15:33.303Z,27.73
2023-02-06T07:16:33.288Z,27.54
2023-02-06T07:18:33.190Z,27.15
2023-02-06T07:19:33.150Z,27.07
2023-02-06T07:20:33.092Z,26.81
2023-02-06T07:21:33.598Z,26.89
2023-02-06T07:22:33.179Z,26.90
2023-02-06T07:23:33.260Z,26.78
2023-02-06T07:24:33.028Z,26.66
2023-02-06T07:25:46.999Z,26.56
2023-02-06T07:26:32.912Z,26.41
2023-02-06T07:27:32.918Z,26.39
2023-02-06T07:28:32.998Z,26.48
2023-02-06T07:29:33.218Z,26.39
2023-02-06T07:30:33.077Z,26.32
2023-02-06T07:31:32.867Z,26.32
2023-02-06T07:32:32.902Z,26.33
2023-02-06T07:33:32.865Z,26.25
2023-02-06T07:34:32.882Z,26.24
2023-02-06T07:35:32.850Z,26.07
2023-02-06T07:36:32.970Z,27.14
2023-02-06T07:37:32.986Z,26.83
2023-02-06T07:38:32.852Z,27.07
2023-02-06T07:39:32.824Z,27.22
2023-02-06T07:40:44.065Z,26.79
2023-02-06T07:42:32.806Z,27.38
2023-02-06T08:08:13.294Z,26.50
2023-02-06T08:10:13.210Z,26.13
2023-02-06T08:11:12.988Z,26.00
2023-02-06T08:12:13.034Z,25.92
2023-02-06T08:13:13.341Z,25.90
2023-02-06T08:15:12.958Z,25.78
2023-02-06T08:16:13.180Z,25.73
2023-02-06T08:17:12.942Z,25.82
2023-02-06T08:18:12.963Z,25.77
2023-02-06T08:19:12.899Z,25.80
2023-02-06T08:20:13.011Z,25.69
2023-02-06T08:21:13.025Z,25.64
2023-02-06T08:22:12.939Z,25.55
2023-02-06T08:23:12.921Z,25.55
2023-02-06T08:24:13.184Z,25.67
2023-02-06T08:25:13.284Z,25.97
2023-02-06T08:26:13.939Z,26.15
2023-02-06T08:27:12.898Z,26.86
2023-02-06T08:28:13.115Z,26.54
2023-02-06T08:29:13.025Z,26.26
2023-02-06T08:30:13.287Z,25.66
2023-02-06T08:31:13.241Z,25.84
2023-02-06T08:32:13.229Z,26.15
2023-02-06T08:34:13.322Z,29.10
2023-02-06T08:35:13.749Z,28.80
2023-02-06T08:36:13.580Z,28.01
2023-02-06T08:37:13.564Z,27.66
2023-02-06T08:38:13.482Z,26.74
2023-02-06T08:39:13.548Z,26.27
2023-02-06T08:40:14.450Z,26.51
2023-02-06T08:47:10.137Z,26.89
2023-02-06T09:42:35.961Z,25.65
2023-02-06T09:43:36.336Z,25.54
2023-02-06T09:44:35.886Z,25.74
2023-02-06T09:45:36.258Z,25.73
2023-02-06T09:46:36.443Z,25.63
2023-02-06T09:47:35.586Z,25.75
2023-02-06T09:48:35.704Z,25.87
2023-02-06T09:49:35.931Z,26.04
2023-02-06T09:50:36.538Z,26.11
2023-02-06T09:51:35.537Z,26.80
2023-02-06T09:52:35.680Z,26.35
2023-02-06T09:53:35.559Z,26.45
2023-02-06T09:54:35.566Z,26.70
2023-02-06T09:55:36.021Z,26.60
2023-02-06T09:56:36.136Z,26.39
2023-02-06T09:57:35.579Z,26.38
2023-02-06T09:58:35.652Z,26.38
2023-02-06T09:59:35.784Z,26.14
2023-02-06T10:00:36.406Z,26.13
2023-02-06T10:02:55.192Z,26.03
2023-02-06T10:03:54.850Z,25.85
2023-02-06T10:04:55.467Z,25.75
2023-02-06T10:05:54.505Z,25.60
2023-02-06T10:06:54.825Z,25.58
2023-02-06T10:07:54.522Z,25.41
2023-02-06T10:08:55.197Z,25.35
2023-02-06T10:09:54.404Z,25.43
2023-02-06T10:10:54.317Z,25.34
2023-02-06T10:11:54.353Z,25.33
2023-02-06T10:12:54.342Z,25.29
2023-02-06T10:13:54.352Z,25.24
2023-02-06T10:14:54.314Z,25.19
2023-02-06T10:17:13.498Z,25.34
2023-02-06T10:18:13.214Z,25.29
2023-02-06T10:19:13.508Z,25.35
2023-02-06T10:20:13.116Z,25.45
2023-02-06T10:21:13.231Z,25.60
2023-02-06T10:22:13.227Z,25.74
2023-02-06T10:23:13.251Z,25.85
2023-02-06T10:24:13.146Z,25.74
2023-02-06T10:25:13.157Z,25.80
2023-02-06T10:26:13.158Z,25.87
2023-02-06T10:27:13.141Z,25.97
2023-02-06T10:28:13.133Z,26.09
2023-02-06T10:29:14.050Z,26.12
2023-02-06T10:30:13.088Z,25.71
2023-02-06T10:31:13.291Z,25.88
2023-02-06T10:34:34.370Z,26.34
2023-02-06T10:35:33.616Z,25.66
2023-02-06T10:36:34.332Z,25.61
2023-02-06T10:37:34.146Z,25.61
2023-02-06T10:38:34.001Z,25.65
2023-02-06T10:43:16.846Z,26.29
2023-02-06T10:52:37.790Z,25.34
2023-02-06T11:00:03.875Z,25.71
2023-02-06T11:43:24.971Z,27.58
2023-02-06T11:44:24.696Z,27.32
2023-02-06T11:56:38.534Z,26.68
2023-02-06T11:57:37.609Z,25.63
2023-02-06T11:58:38.639Z,25.57
2023-02-06T11:59:37.508Z,25.13
2023-02-06T12:00:37.493Z,24.66
2023-02-06T12:01:37.611Z,24.52
2023-02-06T12:02:37.588Z,24.28
2023-02-06T12:03:37.777Z,24.33
2023-02-06T12:10:56.535Z,24.92
2023-02-06T12:15:39.789Z,24.89
2023-02-06T12:19:25.412Z,24.46
2023-02-06T12:21:45.421Z,21.30
2023-02-06T12:22:44.020Z,21.31
2023-02-06T12:23:44.107Z,22.58
2023-02-06T12:26:23.844Z,24.04
2023-02-06T12:28:45.547Z,25.02
2023-02-06T12:36:26.439Z,20.79
2023-02-06T12:50:51.429Z,22.56
2023-02-06T12:54:45.964Z,21.75
2023-02-06T13:09:26.610Z,22.93
2023-02-06T13:54:50.647Z,19.28
2023-02-06T13:55:50.738Z,19.11
2023-02-06T13:56:50.656Z,18.96
2023-02-06T13:57:50.884Z,19.55
2023-02-06T14:00:09.615Z,21.38
2023-02-06T14:01:10.820Z,21.15
2023-02-06T14:02:09.240Z,21.61
2023-02-06T14:03:09.494Z,21.87
2023-02-06T14:04:09.266Z,21.78
2023-02-06T14:05:09.069Z,22.24
2023-02-06T14:06:09.138Z,23.19
2023-02-06T14:07:09.286Z,23.55
2023-02-06T14:08:09.439Z,23.24
2023-02-06T14:09:09.367Z,23.98
2023-02-06T14:10:09.408Z,24.28
2023-02-06T14:11:09.728Z,24.36
2023-02-06T14:12:09.369Z,24.58
2023-02-06T14:58:43.948Z,25.51
2023-02-06T15:07:05.901Z,25.77
2023-02-06T15:27:17.025Z,25.39
2023-02-06T15:28:16.438Z,24.62
2023-02-06T15:29:16.411Z,24.24
2023-02-06T15:30:16.457Z,23.95
2023-02-06T15:31:16.269Z,23.72
2023-02-06T15:32:16.404Z,23.53
2023-02-06T15:33:17.260Z,23.34
2023-02-06T15:34:16.407Z,23.15
2023-02-06T15:35:16.363Z,23.01
2023-02-06T15:36:17.410Z,22.85
2023-02-06T15:37:16.295Z,22.79
2023-02-06T15:38:17.207Z,22.66
2023-02-06T15:39:16.416Z,22.53
2023-02-06T15:40:16.310Z,22.49
2023-02-06T15:41:17.211Z,22.42
2023-02-06T15:42:16.265Z,22.35
2023-02-06T15:48:54.504Z,22.00
2023-02-06T15:57:07.165Z,23.23
2023-02-06T15:58:08.180Z,22.55
2023-02-06T17:02:18.319Z,24.83
2023-02-06T17:04:39.242Z,21.08
2023-02-06T17:07:56.012Z,22.39
2023-02-06T17:10:15.002Z,23.64
2023-02-06T17:11:15.900Z,23.57
2023-02-06T17:12:15.648Z,23.61
2023-02-06T17:13:14.669Z,23.69
2023-02-06T17:14:14.538Z,23.72
2023-02-06T17:15:14.558Z,23.69
2023-02-06T17:16:14.544Z,23.65
2023-02-06T17:17:14.557Z,23.67
2023-02-06T17:18:14.514Z,23.65
2023-02-06T17:19:14.627Z,23.64
2023-02-06T17:20:14.498Z,23.52
2023-02-06T17:21:14.465Z,23.60
2023-02-06T17:22:14.607Z,23.59
2023-02-06T17:23:14.514Z,23.48
2023-02-06T17:24:14.660Z,23.58
2023-02-06T17:37:17.921Z,24.26
2023-02-06T17:38:19.051Z,23.59
2023-02-06T17:39:18.040Z,23.54
2023-02-06T17:40:18.889Z,23.51
2023-02-06T17:41:17.791Z,23.48
2023-02-06T18:57:42.907Z,22.63
2023-02-06T19:07:42.416Z,22.71
2023-02-06T19:08:45.115Z,22.53
2023-02-06T19:09:42.486Z,22.44
2023-02-06T19:10:42.586Z,22.51
2023-02-06T20:38:55.963Z,22.03
2023-02-06T20:41:14.788Z,22.46
2023-02-06T20:43:33.688Z,23.10
2023-02-06T20:44:34.890Z,23.33
2023-02-06T21:06:04.356Z,23.82
2023-02-06T21:07:04.361Z,23.21
2023-02-06T21:17:44.876Z,23.74
2023-02-06T21:18:44.572Z,23.25
2023-02-06T21:21:03.223Z,22.96
2023-02-06T21:22:03.465Z,22.97
2023-02-06T21:23:03.265Z,23.01
2023-02-06T21:24:03.345Z,22.94
2023-02-06T21:25:03.099Z,22.96
2023-02-06T21:26:03.140Z,22.71
2023-02-06T21:27:03.056Z,22.72
2023-02-06T21:28:03.158Z,22.70
2023-02-06T21:29:03.170Z,22.73
2023-02-06T21:30:03.076Z,22.77
2023-02-06T21:31:03.175Z,22.80
2023-02-06T21:32:13.274Z,22.79
2023-02-06T21:33:04.104Z,22.82
2023-02-06T21:34:03.041Z,22.81
2023-02-06T21:35:03.043Z,22.74
2023-02-06T21:36:03.036Z,22.71
2023-02-06T21:37:05.771Z,22.73
2023-02-06T21:38:02.991Z,22.77
2023-02-06T21:39:03.142Z,22.76
2023-02-06T21:40:04.229Z,22.77
2023-02-06T21:41:03.072Z,22.79
2023-02-06T21:42:03.072Z,22.76
2023-02-06T21:43:03.071Z,22.80
2023-02-06T21:44:03.289Z,22.82
2023-02-06T21:45:03.310Z,22.85
2023-02-06T21:46:03.044Z,22.86
2023-02-06T21:47:03.008Z,22.81
2023-02-06T21:48:02.933Z,22.80
2023-02-06T21:49:03.079Z,22.81
2023-02-06T21:50:02.930Z,22.83
2023-02-06T21:51:03.039Z,22.74
2023-02-06T21:52:03.958Z,22.82
2023-02-06T21:53:02.918Z,22.82
2023-02-06T21:54:02.873Z,22.77
2023-02-06T21:55:07.423Z,22.79
2023-02-06T21:56:02.877Z,22.73
2023-02-06T21:57:03.953Z,22.69
2023-02-06T21:58:03.823Z,22.79
2023-02-06T21:59:02.931Z,22.81
2023-02-06T22:00:02.854Z,22.76
2023-02-06T22:01:02.876Z,22.79
2023-02-06T22:02:02.902Z,22.78
2023-02-06T22:03:02.938Z,22.69
2023-02-06T22:50:04.842Z,22.32
2023-02-06T22:51:04.922Z,22.28
2023-02-06T22:52:04.925Z,22.27
2023-02-06T22:53:04.960Z,22.25
2023-02-06T22:54:05.160Z,22.25
2023-02-06T22:55:05.219Z,22.26
2023-02-06T22:56:06.118Z,22.17
2023-02-06T22:57:05.099Z,22.25
2023-02-06T22:58:05.170Z,22.25
2023-02-06T22:59:05.188Z,22.21
2023-02-06T23:00:05.354Z,22.25
2023-02-06T23:01:05.421Z,22.20
2023-02-06T23:02:05.332Z,22.24
2023-02-06T23:03:05.309Z,22.20
2023-02-06T23:04:05.366Z,22.23
2023-02-06T23:05:05.387Z,22.23
2023-02-06T23:06:05.501Z,22.21
2023-02-06T23:07:05.582Z,22.19
2023-02-06T23:08:05.675Z,22.21
2023-02-06T23:09:05.705Z,22.20
2023-02-06T23:10:05.721Z,22.22
2023-02-06T23:11:05.791Z,22.16
2023-02-06T23:12:05.779Z,22.16
2023-02-06T23:13:05.882Z,22.20
2023-02-06T23:14:05.897Z,22.19
2023-02-06T23:15:05.923Z,22.17
2023-02-06T23:16:06.952Z,22.15
2023-02-06T23:18:25.565Z,22.27
2023-02-06T23:19:25.317Z,22.24
2023-02-06T23:20:25.082Z,22.21
2023-02-06T23:21:24.924Z,22.18
2023-02-06T23:22:24.856Z,22.19
2023-02-06T23:23:25.914Z,22.15
2023-02-06T23:24:24.924Z,22.13
2023-02-06T23:25:24.977Z,22.13
2023-02-06T23:26:25.933Z,22.13
2023-02-06T23:27:25.794Z,22.14
2023-02-06T23:28:24.905Z,22.11
2023-02-06T23:29:24.800Z,22.14
2023-02-06T23:30:24.863Z,22.08
2023-02-06T23:31:24.896Z,22.06
2023-02-06T23:32:24.753Z,22.02
2023-02-06T23:33:24.763Z,22.00
2023-02-06T23:34:24.749Z,22.01
2023-02-06T23:35:24.848Z,22.02
2023-02-06T23:36:24.790Z,21.98
2023-02-06T23:37:24.738Z,22.02
2023-02-06T23:38:24.694Z,22.04
